ABB442 EGLL-EBCI
Flight info
| Callsign | ABB442 |
|---|---|
| Flight time | 0h 49m |
| Altitude | 19000 |
| Route | DET1J DET L6 DVR L9 KONAN L607 KOK KOK7A |
| Aircraft | A339/H-V/N |
Departure
| Time | 2026-05-05 06:24 |
|---|---|
| Airport | London Heathrow Airport (EGLL) |
Arrival
| Time | 2026-05-05 07:13 |
|---|---|
| Airport | Brussels South Charleroi Airport (EBCI) |
| Time | Latitude | Longitude | Altitude | Speed | Heading |
|---|---|---|---|---|---|
| 2026-05-05 06:03 | 51.46832 | -0.45701 | 93 ft | 0 kts | 1° |
| 2026-05-05 06:14 | 51.46829 | -0.45701 | 93 ft | 2 kts | 1° |
| 2026-05-05 06:15 | 51.46818 | -0.45701 | 93 ft | 2 kts | 1° |
| 2026-05-05 06:15 | 51.46806 | -0.45702 | 93 ft | 2 kts | 1° |
| 2026-05-05 06:15 | 51.46795 | -0.45702 | 93 ft | 2 kts | 1° |
| 2026-05-05 06:15 | 51.46784 | -0.45702 | 93 ft | 2 kts | 1° |
| 2026-05-05 06:16 | 51.46772 | -0.45704 | 93 ft | 2 kts | 347° |
| 2026-05-05 06:16 | 51.46760 | -0.45701 | 92 ft | 2 kts | 324° |
| 2026-05-05 06:16 | 51.46750 | -0.45692 | 93 ft | 2 kts | 297° |
| 2026-05-05 06:16 | 51.46746 | -0.45686 | 94 ft | 0 kts | 278° |
| 2026-05-05 06:19 | 51.46747 | -0.45697 | 91 ft | 5 kts | 278° |
| 2026-05-05 06:19 | 51.46722 | -0.45773 | 95 ft | 8 kts | 207° |
| 2026-05-05 06:19 | 51.46669 | -0.45810 | 97 ft | 8 kts | 239° |
| 2026-05-05 06:19 | 51.46660 | -0.45918 | 92 ft | 11 kts | 267° |
| 2026-05-05 06:20 | 51.46660 | -0.46042 | 97 ft | 12 kts | 270° |
| 2026-05-05 06:20 | 51.46659 | -0.46234 | 100 ft | 23 kts | 270° |
| 2026-05-05 06:20 | 51.46659 | -0.46556 | 103 ft | 32 kts | 269° |
| 2026-05-05 06:20 | 51.46659 | -0.46921 | 102 ft | 33 kts | 269° |
| 2026-05-05 06:21 | 51.46657 | -0.47295 | 96 ft | 34 kts | 270° |
| 2026-05-05 06:21 | 51.46655 | -0.47675 | 95 ft | 34 kts | 270° |
| 2026-05-05 06:21 | 51.46653 | -0.48041 | 97 ft | 31 kts | 270° |
| 2026-05-05 06:21 | 51.46653 | -0.48382 | 100 ft | 30 kts | 269° |
| 2026-05-05 06:22 | 51.46652 | -0.48645 | 99 ft | 10 kts | 270° |
| 2026-05-05 06:22 | 51.46620 | -0.48750 | 100 ft | 4 kts | 213° |
| 2026-05-05 06:22 | 51.46609 | -0.48759 | 100 ft | 4 kts | 208° |
| 2026-05-05 06:22 | 51.46560 | -0.48779 | 97 ft | 12 kts | 184° |
| 2026-05-05 06:23 | 51.46477 | -0.48737 | 102 ft | 10 kts | 122° |
| 2026-05-05 06:23 | 51.46477 | -0.48572 | 99 ft | 25 kts | 90° |
| 2026-05-05 06:23 | 51.46481 | -0.47772 | 95 ft | 118 kts | 89° |
| 2026-05-05 06:23 | 51.46483 | -0.46091 | 232 ft | 176 kts | 88° |
| 2026-05-05 06:24 | 51.46481 | -0.44032 | 864 ft | 193 kts | 88° |
| 2026-05-05 06:24 | 51.46401 | -0.41792 | 1598 ft | 209 kts | 96° |
| 2026-05-05 06:24 | 51.45997 | -0.39491 | 2392 ft | 220 kts | 108° |
| 2026-05-05 06:24 | 51.45186 | -0.37357 | 3165 ft | 230 kts | 127° |
| 2026-05-05 06:25 | 51.43992 | -0.35562 | 3897 ft | 239 kts | 136° |
| 2026-05-05 06:25 | 51.42904 | -0.33544 | 4654 ft | 240 kts | 115° |
| 2026-05-05 06:25 | 51.42427 | -0.31024 | 5511 ft | 235 kts | 99° |
| 2026-05-05 06:25 | 51.42072 | -0.28388 | 6113 ft | 247 kts | 101° |
| 2026-05-05 06:26 | 51.41703 | -0.25658 | 6710 ft | 254 kts | 100° |
| 2026-05-05 06:26 | 51.41397 | -0.22888 | 7315 ft | 258 kts | 96° |
| 2026-05-05 06:26 | 51.41211 | -0.20019 | 7950 ft | 260 kts | 92° |
| 2026-05-05 06:26 | 51.41153 | -0.17104 | 8605 ft | 262 kts | 89° |
| 2026-05-05 06:27 | 51.41222 | -0.14168 | 9275 ft | 264 kts | 84° |
| 2026-05-05 06:27 | 51.41752 | -0.08324 | 10586 ft | 266 kts | 77° |
| 2026-05-05 06:27 | 51.42211 | -0.05432 | 11202 ft | 269 kts | 73° |
| 2026-05-05 06:28 | 51.42588 | -0.03525 | 11622 ft | 273 kts | 70° |
| 2026-05-05 06:29 | 51.44372 | 0.06002 | 13023 ft | 312 kts | 82° |
| 2026-05-05 06:29 | 51.44553 | 0.09583 | 13219 ft | 332 kts | 94° |
| 2026-05-05 06:29 | 51.44032 | 0.13272 | 13455 ft | 348 kts | 107° |
| 2026-05-05 06:30 | 51.43302 | 0.17015 | 14020 ft | 353 kts | 107° |
| 2026-05-05 06:30 | 51.42621 | 0.20803 | 14606 ft | 355 kts | 104° |
| 2026-05-05 06:30 | 51.42023 | 0.24652 | 15191 ft | 358 kts | 104° |
| 2026-05-05 06:30 | 51.41442 | 0.28549 | 15782 ft | 361 kts | 104° |
| 2026-05-05 06:31 | 51.40852 | 0.32464 | 16402 ft | 363 kts | 104° |
| 2026-05-05 06:31 | 51.40244 | 0.36410 | 16950 ft | 366 kts | 104° |
| 2026-05-05 06:31 | 51.39629 | 0.40337 | 17494 ft | 369 kts | 105° |
| 2026-05-05 06:31 | 51.38990 | 0.44385 | 18131 ft | 371 kts | 105° |
| 2026-05-05 06:32 | 51.38356 | 0.48366 | 18598 ft | 375 kts | 105° |
| 2026-05-05 06:32 | 51.37704 | 0.52449 | 18806 ft | 379 kts | 105° |
| 2026-05-05 06:32 | 51.37051 | 0.56535 | 18890 ft | 378 kts | 105° |
| 2026-05-05 06:32 | 51.36398 | 0.60617 | 18977 ft | 378 kts | 106° |
| 2026-05-05 06:33 | 51.35741 | 0.64704 | 18992 ft | 379 kts | 106° |
| 2026-05-05 06:33 | 51.35080 | 0.68792 | 18998 ft | 379 kts | 105° |
| 2026-05-05 06:33 | 51.34420 | 0.72883 | 18994 ft | 379 kts | 106° |
| 2026-05-05 06:33 | 51.33769 | 0.76907 | 18998 ft | 379 kts | 106° |
| 2026-05-05 06:34 | 51.33106 | 0.80985 | 18991 ft | 378 kts | 105° |
| 2026-05-05 06:34 | 51.32446 | 0.85038 | 19004 ft | 374 kts | 105° |
| 2026-05-05 06:34 | 51.31792 | 0.89052 | 18996 ft | 373 kts | 105° |
| 2026-05-05 06:34 | 51.31133 | 0.93085 | 18989 ft | 376 kts | 106° |
| 2026-05-05 06:35 | 51.30469 | 0.97131 | 18986 ft | 378 kts | 105° |
| 2026-05-05 06:35 | 51.29800 | 1.01203 | 18979 ft | 377 kts | 105° |
| 2026-05-05 06:35 | 51.29138 | 1.05235 | 18981 ft | 375 kts | 105° |
| 2026-05-05 06:35 | 51.28469 | 1.09278 | 18984 ft | 377 kts | 105° |
| 2026-05-05 06:36 | 51.27796 | 1.13344 | 18985 ft | 378 kts | 105° |
| 2026-05-05 06:36 | 51.27124 | 1.17393 | 18980 ft | 377 kts | 105° |
| 2026-05-05 06:36 | 51.26455 | 1.21424 | 18981 ft | 376 kts | 105° |
| 2026-05-05 06:36 | 51.25788 | 1.25420 | 18985 ft | 378 kts | 105° |
| 2026-05-05 06:37 | 51.25111 | 1.29475 | 18980 ft | 377 kts | 106° |
| 2026-05-05 06:37 | 51.24440 | 1.33485 | 18974 ft | 376 kts | 106° |
| 2026-05-05 06:37 | 51.23786 | 1.37381 | 18980 ft | 377 kts | 106° |
| 2026-05-05 06:37 | 51.23105 | 1.41424 | 18973 ft | 378 kts | 105° |
| 2026-05-05 06:38 | 51.22425 | 1.45466 | 18975 ft | 377 kts | 106° |
| 2026-05-05 06:38 | 51.21745 | 1.49499 | 18978 ft | 375 kts | 106° |
| 2026-05-05 06:38 | 51.21061 | 1.53532 | 18974 ft | 377 kts | 106° |
| 2026-05-05 06:38 | 51.20372 | 1.57582 | 18979 ft | 378 kts | 106° |
| 2026-05-05 06:39 | 51.19686 | 1.61612 | 18979 ft | 376 kts | 106° |
| 2026-05-05 06:39 | 51.19001 | 1.65636 | 18976 ft | 376 kts | 106° |
| 2026-05-05 06:39 | 51.18311 | 1.69665 | 18975 ft | 378 kts | 106° |
| 2026-05-05 06:39 | 51.17624 | 1.73672 | 18977 ft | 377 kts | 106° |
| 2026-05-05 06:40 | 51.16934 | 1.77695 | 18975 ft | 376 kts | 106° |
| 2026-05-05 06:40 | 51.16257 | 1.81627 | 18972 ft | 377 kts | 106° |
| 2026-05-05 06:40 | 51.15563 | 1.85645 | 18972 ft | 378 kts | 106° |
| 2026-05-05 06:40 | 51.14874 | 1.89636 | 18970 ft | 377 kts | 106° |
| 2026-05-05 06:41 | 51.14180 | 1.93646 | 18973 ft | 375 kts | 106° |
| 2026-05-05 06:41 | 51.13506 | 1.97524 | 18968 ft | 377 kts | 106° |
| 2026-05-05 06:41 | 51.12970 | 2.01580 | 18965 ft | 379 kts | 98° |
| 2026-05-05 06:41 | 51.12741 | 2.05753 | 18970 ft | 378 kts | 95° |
| 2026-05-05 06:42 | 51.12539 | 2.09910 | 18973 ft | 378 kts | 95° |
| 2026-05-05 06:42 | 51.12327 | 2.14086 | 18972 ft | 379 kts | 95° |
| 2026-05-05 06:42 | 51.12108 | 2.18255 | 18968 ft | 377 kts | 96° |
| 2026-05-05 06:42 | 51.11884 | 2.22419 | 18971 ft | 378 kts | 96° |
| 2026-05-05 06:43 | 51.11656 | 2.26587 | 18962 ft | 379 kts | 96° |
| 2026-05-05 06:43 | 51.11426 | 2.30764 | 18966 ft | 378 kts | 96° |
| 2026-05-05 06:43 | 51.11197 | 2.34919 | 18959 ft | 377 kts | 96° |
| 2026-05-05 06:43 | 51.10964 | 2.39087 | 18963 ft | 379 kts | 96° |
| 2026-05-05 06:44 | 51.10729 | 2.43270 | 18966 ft | 378 kts | 96° |
| 2026-05-05 06:44 | 51.10496 | 2.47422 | 18960 ft | 377 kts | 96° |
| 2026-05-05 06:44 | 51.10258 | 2.51587 | 18964 ft | 379 kts | 96° |
| 2026-05-05 06:44 | 51.10020 | 2.55764 | 18963 ft | 378 kts | 96° |
| 2026-05-05 06:45 | 51.09785 | 2.59872 | 18957 ft | 377 kts | 96° |
| 2026-05-05 06:45 | 51.09542 | 2.64040 | 18954 ft | 379 kts | 96° |
| 2026-05-05 06:45 | 51.09132 | 2.68174 | 18956 ft | 377 kts | 102° |
| 2026-05-05 06:45 | 51.08628 | 2.72259 | 18961 ft | 376 kts | 102° |
| 2026-05-05 06:46 | 51.08130 | 2.76368 | 18952 ft | 378 kts | 101° |
| 2026-05-05 06:46 | 51.07636 | 2.80481 | 18958 ft | 378 kts | 102° |
| 2026-05-05 06:46 | 51.07145 | 2.84577 | 18944 ft | 376 kts | 102° |
| 2026-05-05 06:46 | 51.06652 | 2.88662 | 18950 ft | 378 kts | 102° |
| 2026-05-05 06:47 | 51.06158 | 2.92727 | 18944 ft | 379 kts | 102° |
| 2026-05-05 06:47 | 51.05661 | 2.96819 | 18948 ft | 376 kts | 102° |
| 2026-05-05 06:47 | 51.05168 | 3.00874 | 18943 ft | 366 kts | 102° |
| 2026-05-05 06:47 | 51.04695 | 3.04740 | 18944 ft | 345 kts | 102° |
| 2026-05-05 06:48 | 51.04251 | 3.08370 | 18947 ft | 325 kts | 102° |
| 2026-05-05 06:48 | 51.03826 | 3.11827 | 18945 ft | 319 kts | 102° |
| 2026-05-05 06:48 | 51.03389 | 3.15347 | 18950 ft | 329 kts | 102° |
| 2026-05-05 06:48 | 51.02947 | 3.18909 | 18942 ft | 328 kts | 102° |
| 2026-05-05 06:49 | 51.02509 | 3.22440 | 18896 ft | 325 kts | 102° |
| 2026-05-05 06:49 | 51.02073 | 3.25946 | 18646 ft | 321 kts | 102° |
| 2026-05-05 06:49 | 51.01640 | 3.29420 | 18166 ft | 321 kts | 102° |
| 2026-05-05 06:49 | 51.01206 | 3.32880 | 17595 ft | 319 kts | 102° |
| 2026-05-05 06:50 | 51.00777 | 3.36306 | 17114 ft | 314 kts | 102° |
| 2026-05-05 06:50 | 51.00350 | 3.39697 | 16560 ft | 312 kts | 102° |
| 2026-05-05 06:50 | 50.99926 | 3.43064 | 15979 ft | 311 kts | 101° |
| 2026-05-05 06:50 | 50.99500 | 3.46425 | 15381 ft | 311 kts | 101° |
| 2026-05-05 06:51 | 50.99077 | 3.49767 | 15025 ft | 303 kts | 101° |
| 2026-05-05 06:51 | 50.98668 | 3.52984 | 14758 ft | 304 kts | 101° |
| 2026-05-05 06:51 | 50.98244 | 3.56313 | 14487 ft | 308 kts | 101° |
| 2026-05-05 06:51 | 50.97823 | 3.59622 | 14150 ft | 304 kts | 101° |
| 2026-05-05 06:52 | 50.97403 | 3.62895 | 13660 ft | 302 kts | 101° |
| 2026-05-05 06:52 | 50.96987 | 3.66138 | 13104 ft | 299 kts | 101° |
| 2026-05-05 06:52 | 50.96573 | 3.69365 | 12494 ft | 297 kts | 101° |
| 2026-05-05 06:52 | 50.96225 | 3.72081 | 11980 ft | 297 kts | 101° |
| 2026-05-05 06:53 | 50.95813 | 3.75274 | 11414 ft | 293 kts | 101° |
| 2026-05-05 06:53 | 50.95403 | 3.78434 | 10804 ft | 292 kts | 100° |
| 2026-05-05 06:53 | 50.94995 | 3.81587 | 10249 ft | 291 kts | 100° |
| 2026-05-05 06:53 | 50.94591 | 3.84714 | 9675 ft | 288 kts | 101° |
| 2026-05-05 06:54 | 50.94186 | 3.87818 | 9081 ft | 285 kts | 100° |
| 2026-05-05 06:54 | 50.93785 | 3.90876 | 8506 ft | 281 kts | 100° |
| 2026-05-05 06:54 | 50.93396 | 3.93847 | 8301 ft | 273 kts | 99° |
| 2026-05-05 06:54 | 50.93006 | 3.96800 | 8118 ft | 273 kts | 102° |
| 2026-05-05 06:55 | 50.92229 | 3.99589 | 8029 ft | 284 kts | 123° |
| 2026-05-05 06:55 | 50.90855 | 4.01748 | 8022 ft | 284 kts | 141° |
| 2026-05-05 06:55 | 50.89280 | 4.03694 | 8002 ft | 286 kts | 141° |
| 2026-05-05 06:55 | 50.87717 | 4.05651 | 8006 ft | 287 kts | 139° |
| 2026-05-05 06:56 | 50.86156 | 4.07631 | 8004 ft | 287 kts | 139° |
| 2026-05-05 06:56 | 50.84603 | 4.09617 | 8005 ft | 287 kts | 139° |
| 2026-05-05 06:56 | 50.83054 | 4.11606 | 8004 ft | 285 kts | 140° |
| 2026-05-05 06:56 | 50.81510 | 4.13588 | 7997 ft | 285 kts | 140° |
| 2026-05-05 06:57 | 50.79973 | 4.15560 | 8004 ft | 284 kts | 139° |
| 2026-05-05 06:57 | 50.78437 | 4.17521 | 8000 ft | 284 kts | 139° |
| 2026-05-05 06:57 | 50.76899 | 4.19486 | 7999 ft | 284 kts | 139° |
| 2026-05-05 06:57 | 50.75364 | 4.21451 | 8000 ft | 284 kts | 139° |
| 2026-05-05 06:58 | 50.73828 | 4.23414 | 7998 ft | 284 kts | 139° |
| 2026-05-05 06:58 | 50.72288 | 4.25379 | 7998 ft | 284 kts | 139° |
| 2026-05-05 06:58 | 50.70751 | 4.27338 | 7998 ft | 284 kts | 139° |
| 2026-05-05 06:58 | 50.69202 | 4.29212 | 8000 ft | 286 kts | 144° |
| 2026-05-05 06:59 | 50.67511 | 4.30702 | 7990 ft | 268 kts | 150° |
| 2026-05-05 06:59 | 50.65936 | 4.31992 | 7992 ft | 243 kts | 150° |
| 2026-05-05 06:59 | 50.64463 | 4.33214 | 7833 ft | 239 kts | 149° |
| 2026-05-05 06:59 | 50.63006 | 4.34438 | 7492 ft | 236 kts | 150° |
| 2026-05-05 07:00 | 50.61556 | 4.35659 | 7034 ft | 237 kts | 149° |
| 2026-05-05 07:00 | 50.60103 | 4.36882 | 6553 ft | 236 kts | 149° |
| 2026-05-05 07:00 | 50.58657 | 4.38098 | 6116 ft | 235 kts | 149° |
| 2026-05-05 07:00 | 50.57221 | 4.39302 | 5684 ft | 233 kts | 149° |
| 2026-05-05 07:01 | 50.55800 | 4.40491 | 5261 ft | 231 kts | 148° |
| 2026-05-05 07:01 | 50.54382 | 4.41678 | 4849 ft | 230 kts | 148° |
| 2026-05-05 07:01 | 50.52980 | 4.42852 | 4431 ft | 228 kts | 148° |
| 2026-05-05 07:01 | 50.51585 | 4.44019 | 4016 ft | 226 kts | 148° |
| 2026-05-05 07:02 | 50.50217 | 4.45164 | 3595 ft | 225 kts | 148° |
| 2026-05-05 07:02 | 50.48837 | 4.46320 | 3225 ft | 223 kts | 148° |
| 2026-05-05 07:02 | 50.47503 | 4.47447 | 3111 ft | 211 kts | 145° |
| 2026-05-05 07:02 | 50.46550 | 4.49014 | 2999 ft | 189 kts | 111° |
| 2026-05-05 07:03 | 50.46249 | 4.50914 | 3004 ft | 179 kts | 95° |
| 2026-05-05 07:03 | 50.46036 | 4.52878 | 3001 ft | 183 kts | 96° |
| 2026-05-05 07:03 | 50.45795 | 4.54824 | 3001 ft | 181 kts | 97° |
| 2026-05-05 07:03 | 50.45534 | 4.56753 | 2998 ft | 179 kts | 98° |
| 2026-05-05 07:04 | 50.45272 | 4.58653 | 3000 ft | 179 kts | 97° |
| 2026-05-05 07:04 | 50.45006 | 4.60591 | 3000 ft | 183 kts | 98° |
| 2026-05-05 07:04 | 50.44737 | 4.62532 | 3003 ft | 182 kts | 98° |
| 2026-05-05 07:04 | 50.44473 | 4.64494 | 3000 ft | 185 kts | 99° |
| 2026-05-05 07:05 | 50.44206 | 4.66414 | 2999 ft | 180 kts | 99° |
| 2026-05-05 07:05 | 50.43943 | 4.68366 | 2997 ft | 182 kts | 96° |
| 2026-05-05 07:05 | 50.44030 | 4.70263 | 2989 ft | 178 kts | 70° |
| 2026-05-05 07:05 | 50.44555 | 4.72056 | 2977 ft | 180 kts | 62° |
| 2026-05-05 07:06 | 50.45104 | 4.73810 | 2990 ft | 178 kts | 63° |
| 2026-05-05 07:06 | 50.45633 | 4.75561 | 2992 ft | 178 kts | 63° |
| 2026-05-05 07:06 | 50.46149 | 4.77311 | 2971 ft | 175 kts | 64° |
| 2026-05-05 07:06 | 50.46688 | 4.79053 | 2969 ft | 179 kts | 57° |
| 2026-05-05 07:07 | 50.47653 | 4.80258 | 2989 ft | 181 kts | 20° |
| 2026-05-05 07:07 | 50.48886 | 4.80279 | 2996 ft | 184 kts | 344° |
| 2026-05-05 07:07 | 50.50033 | 4.79401 | 2985 ft | 182 kts | 334° |
| 2026-05-05 07:07 | 50.51134 | 4.78473 | 2998 ft | 184 kts | 335° |
| 2026-05-05 07:08 | 50.52284 | 4.77556 | 2988 ft | 186 kts | 336° |
| 2026-05-05 07:08 | 50.53430 | 4.76636 | 2976 ft | 186 kts | 329° |
| 2026-05-05 07:08 | 50.54204 | 4.75092 | 2980 ft | 175 kts | 291° |
| 2026-05-05 07:08 | 50.54205 | 4.73274 | 2850 ft | 165 kts | 250° |
| 2026-05-05 07:09 | 50.53684 | 4.71748 | 2741 ft | 157 kts | 240° |
| 2026-05-05 07:09 | 50.53165 | 4.70234 | 2560 ft | 157 kts | 244° |
| 2026-05-05 07:09 | 50.52684 | 4.68673 | 2465 ft | 161 kts | 246° |
| 2026-05-05 07:09 | 50.52233 | 4.67117 | 2306 ft | 155 kts | 247° |
| 2026-05-05 07:10 | 50.51789 | 4.65556 | 2163 ft | 155 kts | 248° |
| 2026-05-05 07:10 | 50.51348 | 4.64010 | 2028 ft | 154 kts | 248° |
| 2026-05-05 07:10 | 50.50924 | 4.62470 | 1796 ft | 157 kts | 250° |
| 2026-05-05 07:10 | 50.50494 | 4.60905 | 1568 ft | 152 kts | 250° |
| 2026-05-05 07:11 | 50.50050 | 4.59317 | 1453 ft | 164 kts | 250° |
| 2026-05-05 07:11 | 50.49603 | 4.57726 | 1265 ft | 152 kts | 249° |
| 2026-05-05 07:11 | 50.49174 | 4.56261 | 1062 ft | 148 kts | 249° |
| 2026-05-05 07:11 | 50.48746 | 4.54795 | 882 ft | 143 kts | 250° |
| 2026-05-05 07:12 | 50.48346 | 4.53411 | 688 ft | 141 kts | 249° |
| 2026-05-05 07:12 | 50.47935 | 4.52002 | 668 ft | 141 kts | 248° |
| 2026-05-05 07:12 | 50.47518 | 4.50597 | 689 ft | 144 kts | 248° |
| 2026-05-05 07:12 | 50.47114 | 4.49149 | 679 ft | 142 kts | 250° |
| 2026-05-05 07:13 | 50.46718 | 4.47714 | 659 ft | 145 kts | 246° |
| 2026-05-05 07:13 | 50.46301 | 4.46339 | 631 ft | 117 kts | 244° |
| 2026-05-05 07:13 | 50.46083 | 4.45615 | 634 ft | 36 kts | 246° |
| 2026-05-05 07:13 | 50.46038 | 4.45491 | 632 ft | 4 kts | 220° |
| 2026-05-05 07:14 | 50.46019 | 4.45484 | 639 ft | 3 kts | 189° |
| 2026-05-05 07:14 | 50.45993 | 4.45492 | 636 ft | 0 kts | 163° |
| 2026-05-05 07:14 | 50.45983 | 4.45497 | 637 ft | 3 kts | 163° |
| 2026-05-05 07:14 | 50.45956 | 4.45518 | 638 ft | 5 kts | 143° |
| 2026-05-05 07:15 | 50.45952 | 4.45570 | 634 ft | 6 kts | 86° |
| 2026-05-05 07:15 | 50.45961 | 4.45614 | 629 ft | 8 kts | 69° |
| 2026-05-05 07:15 | 50.46001 | 4.45749 | 639 ft | 14 kts | 64° |
| 2026-05-05 07:15 | 50.46041 | 4.45903 | 633 ft | 16 kts | 73° |
| 2026-05-05 07:16 | 50.46066 | 4.46088 | 636 ft | 18 kts | 71° |
| 2026-05-05 07:16 | 50.46103 | 4.46211 | 629 ft | 19 kts | 58° |
| 2026-05-05 07:16 | 50.46191 | 4.46225 | 631 ft | 13 kts | 340° |
| 2026-05-05 07:16 | 50.46283 | 4.46154 | 628 ft | 16 kts | 334° |
| 2026-05-05 07:17 | 50.46343 | 4.46109 | 630 ft | 7 kts | 334° |
| 2026-05-05 07:17 | 50.46390 | 4.46104 | 627 ft | 7 kts | 19° |
| 2026-05-05 07:17 | 50.46423 | 4.46169 | 634 ft | 9 kts | 59° |
| 2026-05-05 07:17 | 50.46450 | 4.46270 | 626 ft | 11 kts | 67° |
| 2026-05-05 07:18 | 50.46487 | 4.46394 | 632 ft | 14 kts | 64° |
| 2026-05-05 07:18 | 50.46532 | 4.46538 | 624 ft | 15 kts | 56° |
| 2026-05-05 07:18 | 50.46599 | 4.46542 | 627 ft | 9 kts | 338° |
| 2026-05-05 07:18 | 50.46660 | 4.46561 | 632 ft | 10 kts | 19° |
| 2026-05-05 07:19 | 50.46709 | 4.46603 | 629 ft | 0 kts | 30° |